sensor_id;sensor_type;location;lat;lon;timestamp;P1;durP1;ratioP1;P2;durP2;ratioP2
56267;SDS011;42175;46.930;9.532;2022-10-15T00:02:10;5.88;;;2.05;;
56267;SDS011;42175;46.930;9.532;2022-10-15T00:04:36;5.57;;;2.10;;
56267;SDS011;42175;46.930;9.532;2022-10-15T00:07:02;5.38;;;2.17;;
56267;SDS011;42175;46.930;9.532;2022-10-15T00:09:28;7.13;;;2.58;;
56267;SDS011;42175;46.930;9.532;2022-10-15T00:11:54;5.47;;;1.80;;
56267;SDS011;42175;46.930;9.532;2022-10-15T00:14:20;9.52;;;1.98;;
56267;SDS011;42175;46.930;9.532;2022-10-15T00:16:45;7.85;;;2.67;;
56267;SDS011;42175;46.930;9.532;2022-10-15T00:19:11;9.82;;;2.58;;
56267;SDS011;42175;46.930;9.532;2022-10-15T00:21:37;4.78;;;1.98;;
56267;SDS011;42175;46.930;9.532;2022-10-15T00:24:04;6.53;;;2.10;;
56267;SDS011;42175;46.930;9.532;2022-10-15T00:26:30;6.18;;;2.10;;
56267;SDS011;42175;46.930;9.532;2022-10-15T00:29:00;4.05;;;1.60;;
56267;SDS011;42175;46.930;9.532;2022-10-15T00:31:28;5.22;;;1.95;;
56267;SDS011;42175;46.930;9.532;2022-10-15T00:33:55;8.02;;;1.85;;
56267;SDS011;42175;46.930;9.532;2022-10-15T00:36:25;6.47;;;2.13;;
56267;SDS011;42175;46.930;9.532;2022-10-15T00:38:53;6.78;;;2.15;;
56267;SDS011;42175;46.930;9.532;2022-10-15T00:41:22;7.95;;;1.85;;
56267;SDS011;42175;46.930;9.532;2022-10-15T00:43:53;2.60;;;1.65;;
56267;SDS011;42175;46.930;9.532;2022-10-15T00:46:25;3.70;;;1.75;;
56267;SDS011;42175;46.930;9.532;2022-10-15T00:52:11;8.95;;;2.67;;
56267;SDS011;42175;46.930;9.532;2022-10-15T00:55:02;5.47;;;2.20;;
56267;SDS011;42175;46.930;9.532;2022-10-15T00:57:32;3.40;;;2.05;;
56267;SDS011;42175;46.930;9.532;2022-10-15T01:00:00;7.18;;;2.10;;
56267;SDS011;42175;46.930;9.532;2022-10-15T01:02:30;6.47;;;1.50;;
56267;SDS011;42175;46.930;9.532;2022-10-15T01:04:56;3.95;;;1.92;;
56267;SDS011;42175;46.930;9.532;2022-10-15T01:07:22;4.50;;;2.00;;
56267;SDS011;42175;46.930;9.532;2022-10-15T01:09:48;8.57;;;2.10;;
56267;SDS011;42175;46.930;9.532;2022-10-15T01:15:14;4.28;;;2.00;;
56267;SDS011;42175;46.930;9.532;2022-10-15T01:18:13;4.72;;;1.50;;
56267;SDS011;42175;46.930;9.532;2022-10-15T01:20:52;3.15;;;1.60;;
56267;SDS011;42175;46.930;9.532;2022-10-15T01:32:37;3.70;;;1.88;;
56267;SDS011;42175;46.930;9.532;2022-10-15T01:40:29;3.85;;;1.50;;
56267;SDS011;42175;46.930;9.532;2022-10-15T01:43:01;6.43;;;1.75;;
56267;SDS011;42175;46.930;9.532;2022-10-15T01:45:36;3.65;;;1.75;;
56267;SDS011;42175;46.930;9.532;2022-10-15T01:48:09;4.72;;;1.60;;
56267;SDS011;42175;46.930;9.532;2022-10-15T01:50:41;3.22;;;1.70;;
56267;SDS011;42175;46.930;9.532;2022-10-15T01:53:14;10.13;;;2.05;;
56267;SDS011;42175;46.930;9.532;2022-10-15T01:55:44;6.18;;;1.60;;
56267;SDS011;42175;46.930;9.532;2022-10-15T01:58:11;3.75;;;1.50;;
56267;SDS011;42175;46.930;9.532;2022-10-15T02:00:40;4.00;;;1.60;;
56267;SDS011;42175;46.930;9.532;2022-10-15T02:03:08;3.42;;;1.60;;
56267;SDS011;42175;46.930;9.532;2022-10-15T02:05:35;3.22;;;1.40;;
56267;SDS011;42175;46.930;9.532;2022-10-15T02:08:16;7.47;;;2.00;;
56267;SDS011;42175;46.930;9.532;2022-10-15T02:11:01;6.55;;;2.25;;
56267;SDS011;42175;46.930;9.532;2022-10-15T02:16:18;3.10;;;1.65;;
56267;SDS011;42175;46.930;9.532;2022-10-15T02:18:57;5.25;;;1.38;;
56267;SDS011;42175;46.930;9.532;2022-10-15T02:21:31;4.50;;;1.50;;
56267;SDS011;42175;46.930;9.532;2022-10-15T02:24:34;3.53;;;1.65;;
56267;SDS011;42175;46.930;9.532;2022-10-15T02:27:11;3.40;;;1.95;;
56267;SDS011;42175;46.930;9.532;2022-10-15T02:29:40;4.30;;;1.60;;
56267;SDS011;42175;46.930;9.532;2022-10-15T02:32:08;3.40;;;1.48;;
56267;SDS011;42175;46.930;9.532;2022-10-15T02:34:36;3.55;;;1.60;;
56267;SDS011;42175;46.930;9.532;2022-10-15T02:37:03;5.28;;;1.63;;
56267;SDS011;42175;46.930;9.532;2022-10-15T02:39:32;5.90;;;1.45;;
56267;SDS011;42175;46.930;9.532;2022-10-15T02:41:58;4.38;;;1.42;;
56267;SDS011;42175;46.930;9.532;2022-10-15T02:44:25;1.80;;;1.35;;
56267;SDS011;42175;46.930;9.532;2022-10-15T02:46:51;3.65;;;1.40;;
56267;SDS011;42175;46.930;9.532;2022-10-15T02:49:17;4.72;;;1.50;;
56267;SDS011;42175;46.930;9.532;2022-10-15T02:51:42;3.85;;;1.90;;
56267;SDS011;42175;46.930;9.532;2022-10-15T02:54:08;3.33;;;1.48;;
56267;SDS011;42175;46.930;9.532;2022-10-15T02:56:34;4.15;;;1.50;;
56267;SDS011;42175;46.930;9.532;2022-10-15T02:59:03;7.18;;;1.50;;
56267;SDS011;42175;46.930;9.532;2022-10-15T03:01:30;1.50;;;0.90;;
56267;SDS011;42175;46.930;9.532;2022-10-15T03:03:56;3.03;;;1.30;;
56267;SDS011;42175;46.930;9.532;2022-10-15T03:06:22;7.50;;;1.45;;
56267;SDS011;42175;46.930;9.532;2022-10-15T03:08:48;4.97;;;1.60;;
56267;SDS011;42175;46.930;9.532;2022-10-15T03:11:14;5.30;;;1.48;;
56267;SDS011;42175;46.930;9.532;2022-10-15T03:13:41;7.22;;;1.30;;
56267;SDS011;42175;46.930;9.532;2022-10-15T03:16:07;5.25;;;1.92;;
56267;SDS011;42175;46.930;9.532;2022-10-15T03:18:34;4.35;;;1.60;;
56267;SDS011;42175;46.930;9.532;2022-10-15T03:21:00;8.60;;;1.63;;
56267;SDS011;42175;46.930;9.532;2022-10-15T03:23:26;4.97;;;1.17;;
56267;SDS011;42175;46.930;9.532;2022-10-15T03:25:52;4.60;;;1.27;;
56267;SDS011;42175;46.930;9.532;2022-10-15T03:28:19;6.32;;;1.30;;
56267;SDS011;42175;46.930;9.532;2022-10-15T03:30:45;3.22;;;1.40;;
56267;SDS011;42175;46.930;9.532;2022-10-15T03:33:11;5.75;;;1.50;;
56267;SDS011;42175;46.930;9.532;2022-10-15T03:35:37;2.38;;;1.15;;
56267;SDS011;42175;46.930;9.532;2022-10-15T03:38:04;4.03;;;1.15;;
56267;SDS011;42175;46.930;9.532;2022-10-15T03:40:30;2.85;;;1.50;;
56267;SDS011;42175;46.930;9.532;2022-10-15T03:42:56;2.47;;;1.33;;
56267;SDS011;42175;46.930;9.532;2022-10-15T03:45:22;2.58;;;1.20;;
56267;SDS011;42175;46.930;9.532;2022-10-15T03:47:49;3.33;;;1.30;;
56267;SDS011;42175;46.930;9.532;2022-10-15T03:50:15;3.50;;;1.48;;
56267;SDS011;42175;46.930;9.532;2022-10-15T03:52:41;4.40;;;2.13;;
56267;SDS011;42175;46.930;9.532;2022-10-15T03:55:08;3.03;;;1.40;;
56267;SDS011;42175;46.930;9.532;2022-10-15T03:57:38;1.67;;;1.08;;
56267;SDS011;42175;46.930;9.532;2022-10-15T04:00:05;3.17;;;1.45;;
56267;SDS011;42175;46.930;9.532;2022-10-15T04:02:32;3.40;;;1.25;;
56267;SDS011;42175;46.930;9.532;2022-10-15T04:04:58;3.53;;;1.52;;
56267;SDS011;42175;46.930;9.532;2022-10-15T04:07:24;4.05;;;1.20;;
56267;SDS011;42175;46.930;9.532;2022-10-15T04:09:50;4.00;;;1.17;;
56267;SDS011;42175;46.930;9.532;2022-10-15T04:12:16;1.80;;;1.10;;
56267;SDS011;42175;46.930;9.532;2022-10-15T04:14:42;4.28;;;1.13;;
56267;SDS011;42175;46.930;9.532;2022-10-15T04:17:08;1.83;;;1.25;;
56267;SDS011;42175;46.930;9.532;2022-10-15T04:19:34;3.78;;;1.20;;
56267;SDS011;42175;46.930;9.532;2022-10-15T04:22:00;4.28;;;1.10;;
56267;SDS011;42175;46.930;9.532;2022-10-15T04:24:26;5.65;;;1.30;;
56267;SDS011;42175;46.930;9.532;2022-10-15T04:26:52;6.00;;;1.30;;
56267;SDS011;42175;46.930;9.532;2022-10-15T04:29:17;2.67;;;1.20;;
56267;SDS011;42175;46.930;9.532;2022-10-15T04:31:43;2.80;;;1.48;;
56267;SDS011;42175;46.930;9.532;2022-10-15T04:34:09;4.30;;;1.15;;
56267;SDS011;42175;46.930;9.532;2022-10-15T04:36:35;4.18;;;1.20;;
56267;SDS011;42175;46.930;9.532;2022-10-15T04:39:02;2.28;;;1.17;;
56267;SDS011;42175;46.930;9.532;2022-10-15T04:41:28;4.85;;;1.55;;
56267;SDS011;42175;46.930;9.532;2022-10-15T04:43:55;2.72;;;1.08;;
56267;SDS011;42175;46.930;9.532;2022-10-15T04:46:21;3.15;;;1.00;;
56267;SDS011;42175;46.930;9.532;2022-10-15T04:48:47;2.90;;;1.30;;
56267;SDS011;42175;46.930;9.532;2022-10-15T04:51:14;3.78;;;1.25;;
56267;SDS011;42175;46.930;9.532;2022-10-15T04:53:42;2.45;;;1.00;;
56267;SDS011;42175;46.930;9.532;2022-10-15T04:56:12;3.83;;;1.35;;
56267;SDS011;42175;46.930;9.532;2022-10-15T04:58:41;2.83;;;1.10;;
56267;SDS011;42175;46.930;9.532;2022-10-15T05:01:09;5.15;;;1.40;;
56267;SDS011;42175;46.930;9.532;2022-10-15T05:03:37;2.50;;;1.30;;
56267;SDS011;42175;46.930;9.532;2022-10-15T05:06:14;3.95;;;1.10;;
56267;SDS011;42175;46.930;9.532;2022-10-15T05:08:46;6.30;;;1.30;;
56267;SDS011;42175;46.930;9.532;2022-10-15T05:11:13;4.20;;;1.20;;
56267;SDS011;42175;46.930;9.532;2022-10-15T05:13:44;1.83;;;1.25;;
56267;SDS011;42175;46.930;9.532;2022-10-15T05:16:18;10.98;;;1.35;;
56267;SDS011;42175;46.930;9.532;2022-10-15T05:18:47;2.30;;;1.13;;
56267;SDS011;42175;46.930;9.532;2022-10-15T05:21:15;2.25;;;1.23;;
56267;SDS011;42175;46.930;9.532;2022-10-15T05:23:42;3.97;;;1.45;;
56267;SDS011;42175;46.930;9.532;2022-10-15T05:26:10;3.85;;;1.30;;
56267;SDS011;42175;46.930;9.532;2022-10-15T05:28:37;3.78;;;1.30;;
56267;SDS011;42175;46.930;9.532;2022-10-15T05:31:07;6.93;;;1.30;;
56267;SDS011;42175;46.930;9.532;2022-10-15T05:33:35;4.72;;;1.30;;
56267;SDS011;42175;46.930;9.532;2022-10-15T05:36:10;1.30;;;1.05;;
56267;SDS011;42175;46.930;9.532;2022-10-15T05:38:39;7.22;;;2.05;;
56267;SDS011;42175;46.930;9.532;2022-10-15T05:41:05;6.07;;;1.20;;
56267;SDS011;42175;46.930;9.532;2022-10-15T05:43:31;5.05;;;2.08;;
56267;SDS011;42175;46.930;9.532;2022-10-15T05:45:56;4.15;;;1.30;;
56267;SDS011;42175;46.930;9.532;2022-10-15T05:48:22;2.38;;;1.13;;
56267;SDS011;42175;46.930;9.532;2022-10-15T05:50:48;3.42;;;0.80;;
56267;SDS011;42175;46.930;9.532;2022-10-15T05:53:14;3.35;;;1.10;;
56267;SDS011;42175;46.930;9.532;2022-10-15T05:55:39;5.55;;;1.27;;
56267;SDS011;42175;46.930;9.532;2022-10-15T05:58:05;4.10;;;1.48;;
56267;SDS011;42175;46.930;9.532;2022-10-15T06:00:31;7.53;;;1.23;;
56267;SDS011;42175;46.930;9.532;2022-10-15T06:02:57;7.00;;;1.13;;
56267;SDS011;42175;46.930;9.532;2022-10-15T06:05:23;7.47;;;1.27;;
56267;SDS011;42175;46.930;9.532;2022-10-15T06:07:49;11.85;;;1.13;;
56267;SDS011;42175;46.930;9.532;2022-10-15T06:10:15;12.65;;;1.35;;
56267;SDS011;42175;46.930;9.532;2022-10-15T06:12:41;10.63;;;1.38;;
56267;SDS011;42175;46.930;9.532;2022-10-15T06:15:08;10.18;;;1.10;;
56267;SDS011;42175;46.930;9.532;2022-10-15T06:17:34;12.82;;;1.40;;
56267;SDS011;42175;46.930;9.532;2022-10-15T06:20:00;10.15;;;1.42;;
56267;SDS011;42175;46.930;9.532;2022-10-15T06:22:28;6.20;;;1.30;;
56267;SDS011;42175;46.930;9.532;2022-10-15T06:24:54;3.00;;;0.95;;
56267;SDS011;42175;46.930;9.532;2022-10-15T06:27:20;6.85;;;1.60;;
56267;SDS011;42175;46.930;9.532;2022-10-15T06:29:46;9.23;;;1.30;;
56267;SDS011;42175;46.930;9.532;2022-10-15T06:32:11;9.50;;;1.70;;
56267;SDS011;42175;46.930;9.532;2022-10-15T06:34:37;4.05;;;1.20;;
56267;SDS011;42175;46.930;9.532;2022-10-15T06:37:03;2.53;;;0.90;;
56267;SDS011;42175;46.930;9.532;2022-10-15T06:39:29;4.78;;;0.93;;
56267;SDS011;42175;46.930;9.532;2022-10-15T06:41:54;6.25;;;1.00;;
56267;SDS011;42175;46.930;9.532;2022-10-15T06:44:21;12.15;;;1.50;;
56267;SDS011;42175;46.930;9.532;2022-10-15T06:46:46;6.95;;;1.27;;
56267;SDS011;42175;46.930;9.532;2022-10-15T06:49:12;4.70;;;1.67;;
56267;SDS011;42175;46.930;9.532;2022-10-15T06:51:38;5.65;;;1.20;;
56267;SDS011;42175;46.930;9.532;2022-10-15T06:54:03;6.97;;;1.13;;
56267;SDS011;42175;46.930;9.532;2022-10-15T06:56:29;2.55;;;1.10;;
56267;SDS011;42175;46.930;9.532;2022-10-15T06:58:55;2.25;;;1.00;;
56267;SDS011;42175;46.930;9.532;2022-10-15T07:01:21;2.58;;;1.25;;
56267;SDS011;42175;46.930;9.532;2022-10-15T07:03:50;2.55;;;1.15;;
56267;SDS011;42175;46.930;9.532;2022-10-15T07:06:16;6.43;;;1.42;;
56267;SDS011;42175;46.930;9.532;2022-10-15T07:08:43;2.78;;;1.20;;
56267;SDS011;42175;46.930;9.532;2022-10-15T07:11:10;7.45;;;1.35;;
56267;SDS011;42175;46.930;9.532;2022-10-15T07:13:36;6.55;;;1.30;;
56267;SDS011;42175;46.930;9.532;2022-10-15T07:16:06;3.03;;;1.10;;
56267;SDS011;42175;46.930;9.532;2022-10-15T07:18:33;2.67;;;1.35;;
56267;SDS011;42175;46.930;9.532;2022-10-15T07:21:00;4.57;;;1.35;;
56267;SDS011;42175;46.930;9.532;2022-10-15T07:23:27;2.45;;;1.33;;
56267;SDS011;42175;46.930;9.532;2022-10-15T07:25:53;3.72;;;0.98;;
56267;SDS011;42175;46.930;9.532;2022-10-15T07:28:21;3.22;;;1.60;;
56267;SDS011;42175;46.930;9.532;2022-10-15T07:30:47;2.40;;;1.00;;
56267;SDS011;42175;46.930;9.532;2022-10-15T07:33:12;5.45;;;1.08;;
56267;SDS011;42175;46.930;9.532;2022-10-15T07:35:38;5.25;;;1.08;;
56267;SDS011;42175;46.930;9.532;2022-10-15T07:38:04;3.13;;;1.00;;
56267;SDS011;42175;46.930;9.532;2022-10-15T07:40:29;4.05;;;1.30;;
56267;SDS011;42175;46.930;9.532;2022-10-15T07:42:55;8.93;;;1.90;;
56267;SDS011;42175;46.930;9.532;2022-10-15T07:45:23;6.72;;;1.90;;
56267;SDS011;42175;46.930;9.532;2022-10-15T07:47:49;6.15;;;1.55;;
56267;SDS011;42175;46.930;9.532;2022-10-15T07:50:16;8.20;;;2.05;;
56267;SDS011;42175;46.930;9.532;2022-10-15T07:52:42;9.48;;;2.05;;
56267;SDS011;42175;46.930;9.532;2022-10-15T07:55:08;12.43;;;3.00;;
56267;SDS011;42175;46.930;9.532;2022-10-15T07:57:33;8.02;;;2.25;;
56267;SDS011;42175;46.930;9.532;2022-10-15T07:59:59;6.80;;;2.53;;
56267;SDS011;42175;46.930;9.532;2022-10-15T08:02:25;11.85;;;2.38;;
56267;SDS011;42175;46.930;9.532;2022-10-15T08:04:51;13.63;;;3.13;;
56267;SDS011;42175;46.930;9.532;2022-10-15T08:07:17;6.65;;;2.28;;
56267;SDS011;42175;46.930;9.532;2022-10-15T08:09:42;7.50;;;2.53;;
56267;SDS011;42175;46.930;9.532;2022-10-15T08:12:08;11.77;;;2.33;;
56267;SDS011;42175;46.930;9.532;2022-10-15T08:14:34;8.02;;;2.05;;
56267;SDS011;42175;46.930;9.532;2022-10-15T08:17:04;10.45;;;2.35;;
56267;SDS011;42175;46.930;9.532;2022-10-15T08:19:30;11.35;;;2.30;;
56267;SDS011;42175;46.930;9.532;2022-10-15T08:21:57;7.47;;;3.10;;
56267;SDS011;42175;46.930;9.532;2022-10-15T08:24:23;7.57;;;1.77;;
56267;SDS011;42175;46.930;9.532;2022-10-15T08:26:48;8.02;;;2.22;;
56267;SDS011;42175;46.930;9.532;2022-10-15T08:29:14;9.63;;;2.92;;
56267;SDS011;42175;46.930;9.532;2022-10-15T08:31:40;5.55;;;1.92;;
56267;SDS011;42175;46.930;9.532;2022-10-15T08:34:06;10.05;;;2.88;;
56267;SDS011;42175;46.930;9.532;2022-10-15T08:36:32;9.65;;;3.35;;
56267;SDS011;42175;46.930;9.532;2022-10-15T08:38:59;11.32;;;3.63;;
56267;SDS011;42175;46.930;9.532;2022-10-15T08:41:27;7.15;;;2.50;;
56267;SDS011;42175;46.930;9.532;2022-10-15T08:44:00;6.70;;;1.92;;
56267;SDS011;42175;46.930;9.532;2022-10-15T08:46:32;9.50;;;2.65;;
56267;SDS011;42175;46.930;9.532;2022-10-15T08:49:30;8.93;;;2.72;;
56267;SDS011;42175;46.930;9.532;2022-10-15T08:52:25;7.03;;;2.08;;
56267;SDS011;42175;46.930;9.532;2022-10-15T08:55:10;7.57;;;2.13;;
56267;SDS011;42175;46.930;9.532;2022-10-15T09:03:26;7.38;;;2.00;;
56267;SDS011;42175;46.930;9.532;2022-10-15T09:06:13;6.82;;;1.85;;
56267;SDS011;42175;46.930;9.532;2022-10-15T09:14:24;12.70;;;2.40;;
56267;SDS011;42175;46.930;9.532;2022-10-15T09:17:03;15.48;;;2.92;;
56267;SDS011;42175;46.930;9.532;2022-10-15T09:19:38;15.60;;;2.47;;
56267;SDS011;42175;46.930;9.532;2022-10-15T09:22:08;9.77;;;2.28;;
56267;SDS011;42175;46.930;9.532;2022-10-15T09:24:41;4.55;;;2.17;;
56267;SDS011;42175;46.930;9.532;2022-10-15T09:27:28;4.30;;;1.80;;
56267;SDS011;42175;46.930;9.532;2022-10-15T09:40:51;48.35;;;30.00;;
56267;SDS011;42175;46.930;9.532;2022-10-15T09:43:43;59.00;;;31.25;;
56267;SDS011;42175;46.930;9.532;2022-10-15T09:46:13;37.30;;;17.73;;
56267;SDS011;42175;46.930;9.532;2022-10-15T09:48:44;28.33;;;11.07;;
56267;SDS011;42175;46.930;9.532;2022-10-15T09:51:25;31.52;;;12.35;;
56267;SDS011;42175;46.930;9.532;2022-10-15T09:54:09;17.27;;;7.65;;
56267;SDS011;42175;46.930;9.532;2022-10-15T09:56:47;14.82;;;4.38;;
56267;SDS011;42175;46.930;9.532;2022-10-15T09:59:18;15.90;;;5.45;;
56267;SDS011;42175;46.930;9.532;2022-10-15T10:01:55;8.50;;;3.33;;
56267;SDS011;42175;46.930;9.532;2022-10-15T10:04:23;6.35;;;2.58;;
56267;SDS011;42175;46.930;9.532;2022-10-15T10:06:56;8.65;;;2.45;;
56267;SDS011;42175;46.930;9.532;2022-10-15T10:09:31;8.93;;;2.63;;
56267;SDS011;42175;46.930;9.532;2022-10-15T10:12:02;7.30;;;2.42;;
56267;SDS011;42175;46.930;9.532;2022-10-15T10:14:45;9.38;;;2.50;;
56267;SDS011;42175;46.930;9.532;2022-10-15T10:17:22;6.82;;;2.60;;
56267;SDS011;42175;46.930;9.532;2022-10-15T10:20:03;6.10;;;2.40;;
56267;SDS011;42175;46.930;9.532;2022-10-15T10:28:14;8.35;;;2.17;;
56267;SDS011;42175;46.930;9.532;2022-10-15T10:30:52;5.38;;;2.00;;
56267;SDS011;42175;46.930;9.532;2022-10-15T10:33:42;5.80;;;2.58;;
56267;SDS011;42175;46.930;9.532;2022-10-15T10:36:20;8.23;;;2.03;;
56267;SDS011;42175;46.930;9.532;2022-10-15T10:39:03;4.43;;;2.17;;
56267;SDS011;42175;46.930;9.532;2022-10-15T10:41:57;8.68;;;2.47;;
56267;SDS011;42175;46.930;9.532;2022-10-15T10:49:35;6.03;;;2.30;;
56267;SDS011;42175;46.930;9.532;2022-10-15T10:52:05;5.13;;;1.90;;
56267;SDS011;42175;46.930;9.532;2022-10-15T10:54:36;4.50;;;1.90;;
56267;SDS011;42175;46.930;9.532;2022-10-15T10:57:01;4.55;;;2.03;;
56267;SDS011;42175;46.930;9.532;2022-10-15T10:59:36;5.10;;;2.08;;
56267;SDS011;42175;46.930;9.532;2022-10-15T11:02:11;8.02;;;2.88;;
56267;SDS011;42175;46.930;9.532;2022-10-15T11:04:37;15.68;;;3.22;;
56267;SDS011;42175;46.930;9.532;2022-10-15T11:32:09;8.05;;;3.17;;
56267;SDS011;42175;46.930;9.532;2022-10-15T11:34:45;9.05;;;3.40;;
56267;SDS011;42175;46.930;9.532;2022-10-15T11:37:31;5.95;;;3.03;;
56267;SDS011;42175;46.930;9.532;2022-10-15T11:40:12;8.10;;;2.67;;
56267;SDS011;42175;46.930;9.532;2022-10-15T11:43:06;10.43;;;3.05;;
56267;SDS011;42175;46.930;9.532;2022-10-15T11:48:54;11.05;;;3.33;;
56267;SDS011;42175;46.930;9.532;2022-10-15T11:57:18;9.65;;;3.45;;
56267;SDS011;42175;46.930;9.532;2022-10-15T11:59:46;11.63;;;4.00;;
56267;SDS011;42175;46.930;9.532;2022-10-15T12:02:28;10.48;;;3.65;;
56267;SDS011;42175;46.930;9.532;2022-10-15T12:05:23;8.95;;;3.20;;
56267;SDS011;42175;46.930;9.532;2022-10-15T12:07:55;11.27;;;2.95;;
56267;SDS011;42175;46.930;9.532;2022-10-15T12:10:31;8.50;;;3.15;;
56267;SDS011;42175;46.930;9.532;2022-10-15T12:13:15;8.00;;;2.92;;
56267;SDS011;42175;46.930;9.532;2022-10-15T12:32:20;6.13;;;2.50;;
56267;SDS011;42175;46.930;9.532;2022-10-15T12:34:54;5.15;;;2.40;;
56267;SDS011;42175;46.930;9.532;2022-10-15T12:37:21;6.38;;;2.00;;
56267;SDS011;42175;46.930;9.532;2022-10-15T12:40:02;8.38;;;2.10;;
56267;SDS011;42175;46.930;9.532;2022-10-15T12:42:32;10.35;;;2.20;;
56267;SDS011;42175;46.930;9.532;2022-10-15T12:45:00;8.40;;;2.42;;
56267;SDS011;42175;46.930;9.532;2022-10-15T12:50:28;10.32;;;2.10;;
56267;SDS011;42175;46.930;9.532;2022-10-15T12:52:56;5.85;;;2.05;;
56267;SDS011;42175;46.930;9.532;2022-10-15T12:55:40;6.50;;;2.00;;
56267;SDS011;42175;46.930;9.532;2022-10-15T13:00:49;5.07;;;1.58;;
56267;SDS011;42175;46.930;9.532;2022-10-15T13:05:44;55.58;;;11.52;;
56267;SDS011;42175;46.930;9.532;2022-10-15T13:08:31;38.58;;;6.45;;
56267;SDS011;42175;46.930;9.532;2022-10-15T13:10:59;18.33;;;4.70;;
56267;SDS011;42175;46.930;9.532;2022-10-15T13:13:27;15.85;;;3.83;;
56267;SDS011;42175;46.930;9.532;2022-10-15T13:15:58;27.90;;;6.03;;
56267;SDS011;42175;46.930;9.532;2022-10-15T13:18:26;40.28;;;7.95;;
56267;SDS011;42175;46.930;9.532;2022-10-15T13:20:54;33.25;;;7.00;;
56267;SDS011;42175;46.930;9.532;2022-10-15T13:25:51;84.65;;;16.58;;
56267;SDS011;42175;46.930;9.532;2022-10-15T13:28:38;124.00;;;28.90;;
56267;SDS011;42175;46.930;9.532;2022-10-15T13:33:54;110.35;;;28.27;;
56267;SDS011;42175;46.930;9.532;2022-10-15T13:36:25;107.78;;;26.40;;
56267;SDS011;42175;46.930;9.532;2022-10-15T13:38:57;113.15;;;27.80;;
56267;SDS011;42175;46.930;9.532;2022-10-15T13:41:25;112.38;;;28.52;;
56267;SDS011;42175;46.930;9.532;2022-10-15T13:43:54;93.57;;;26.45;;
56267;SDS011;42175;46.930;9.532;2022-10-15T13:46:26;101.13;;;25.63;;
56267;SDS011;42175;46.930;9.532;2022-10-15T13:48:58;94.53;;;24.75;;
56267;SDS011;42175;46.930;9.532;2022-10-15T13:51:27;83.82;;;21.90;;
56267;SDS011;42175;46.930;9.532;2022-10-15T13:53:58;88.30;;;25.00;;
56267;SDS011;42175;46.930;9.532;2022-10-15T13:56:30;79.43;;;20.77;;
56267;SDS011;42175;46.930;9.532;2022-10-15T13:58:58;81.32;;;20.15;;
56267;SDS011;42175;46.930;9.532;2022-10-15T14:01:26;74.10;;;20.05;;
56267;SDS011;42175;46.930;9.532;2022-10-15T14:03:53;72.47;;;21.00;;
56267;SDS011;42175;46.930;9.532;2022-10-15T14:09:01;62.03;;;16.67;;
56267;SDS011;42175;46.930;9.532;2022-10-15T14:11:43;67.05;;;18.30;;
56267;SDS011;42175;46.930;9.532;2022-10-15T14:14:27;55.17;;;17.73;;
56267;SDS011;42175;46.930;9.532;2022-10-15T14:17:00;49.53;;;15.27;;
56267;SDS011;42175;46.930;9.532;2022-10-15T14:19:34;56.88;;;16.20;;
56267;SDS011;42175;46.930;9.532;2022-10-15T14:22:02;53.45;;;15.57;;
56267;SDS011;42175;46.930;9.532;2022-10-15T14:26:59;49.28;;;14.75;;
56267;SDS011;42175;46.930;9.532;2022-10-15T14:29:36;47.55;;;14.50;;
56267;SDS011;42175;46.930;9.532;2022-10-15T14:40:27;37.88;;;10.57;;
56267;SDS011;42175;46.930;9.532;2022-10-15T14:47:48;33.08;;;10.25;;
56267;SDS011;42175;46.930;9.532;2022-10-15T14:50:26;28.63;;;10.18;;
56267;SDS011;42175;46.930;9.532;2022-10-15T14:52:55;30.67;;;9.48;;
56267;SDS011;42175;46.930;9.532;2022-10-15T14:57:48;22.45;;;8.52;;
56267;SDS011;42175;46.930;9.532;2022-10-15T15:00:19;25.63;;;8.18;;
56267;SDS011;42175;46.930;9.532;2022-10-15T15:02:58;21.40;;;7.70;;
56267;SDS011;42175;46.930;9.532;2022-10-15T15:05:27;24.40;;;7.55;;
56267;SDS011;42175;46.930;9.532;2022-10-15T15:07:54;21.52;;;8.23;;
56267;SDS011;42175;46.930;9.532;2022-10-15T15:10:22;21.40;;;7.90;;
56267;SDS011;42175;46.930;9.532;2022-10-15T15:12:51;26.25;;;7.32;;
56267;SDS011;42175;46.930;9.532;2022-10-15T15:15:20;21.05;;;7.28;;
56267;SDS011;42175;46.930;9.532;2022-10-15T15:17:48;23.63;;;7.50;;
56267;SDS011;42175;46.930;9.532;2022-10-15T15:20:15;12.25;;;4.38;;
56267;SDS011;42175;46.930;9.532;2022-10-15T15:22:44;18.77;;;5.38;;
56267;SDS011;42175;46.930;9.532;2022-10-15T15:27:49;16.17;;;5.30;;
56267;SDS011;42175;46.930;9.532;2022-10-15T15:30:16;10.85;;;4.82;;
56267;SDS011;42175;46.930;9.532;2022-10-15T15:32:50;12.88;;;4.63;;
56267;SDS011;42175;46.930;9.532;2022-10-15T15:35:20;10.32;;;4.68;;
56267;SDS011;42175;46.930;9.532;2022-10-15T15:38:14;11.15;;;4.45;;
56267;SDS011;42175;46.930;9.532;2022-10-15T15:40:41;18.35;;;5.40;;
56267;SDS011;42175;46.930;9.532;2022-10-15T15:43:07;15.82;;;6.03;;
56267;SDS011;42175;46.930;9.532;2022-10-15T15:45:33;14.55;;;4.63;;
56267;SDS011;42175;46.930;9.532;2022-10-15T15:47:59;15.85;;;4.80;;
56267;SDS011;42175;46.930;9.532;2022-10-15T15:50:27;23.63;;;3.97;;
56267;SDS011;42175;46.930;9.532;2022-10-15T15:52:54;14.25;;;4.43;;
56267;SDS011;42175;46.930;9.532;2022-10-15T15:55:20;12.27;;;3.83;;
56267;SDS011;42175;46.930;9.532;2022-10-15T15:57:47;9.68;;;3.90;;
56267;SDS011;42175;46.930;9.532;2022-10-15T16:00:14;10.90;;;3.55;;
56267;SDS011;42175;46.930;9.532;2022-10-15T16:02:40;8.57;;;3.42;;
56267;SDS011;42175;46.930;9.532;2022-10-15T16:05:07;12.88;;;3.25;;
56267;SDS011;42175;46.930;9.532;2022-10-15T16:07:36;7.43;;;3.03;;
56267;SDS011;42175;46.930;9.532;2022-10-15T16:10:02;11.50;;;3.53;;
56267;SDS011;42175;46.930;9.532;2022-10-15T16:12:30;13.93;;;3.67;;
56267;SDS011;42175;46.930;9.532;2022-10-15T16:14:58;11.30;;;3.28;;
56267;SDS011;42175;46.930;9.532;2022-10-15T16:17:24;12.98;;;2.92;;
56267;SDS011;42175;46.930;9.532;2022-10-15T16:19:50;10.38;;;3.05;;
56267;SDS011;42175;46.930;9.532;2022-10-15T16:22:15;15.20;;;2.55;;
56267;SDS011;42175;46.930;9.532;2022-10-15T16:24:41;13.43;;;3.00;;
56267;SDS011;42175;46.930;9.532;2022-10-15T16:27:07;12.85;;;2.50;;
56267;SDS011;42175;46.930;9.532;2022-10-15T16:29:32;10.25;;;2.38;;
56267;SDS011;42175;46.930;9.532;2022-10-15T16:31:59;13.02;;;2.65;;
56267;SDS011;42175;46.930;9.532;2022-10-15T16:34:25;9.60;;;2.45;;
56267;SDS011;42175;46.930;9.532;2022-10-15T16:36:50;8.65;;;2.20;;
56267;SDS011;42175;46.930;9.532;2022-10-15T16:39:16;7.70;;;2.50;;
56267;SDS011;42175;46.930;9.532;2022-10-15T16:41:42;9.63;;;2.75;;
56267;SDS011;42175;46.930;9.532;2022-10-15T16:44:08;10.02;;;2.63;;
56267;SDS011;42175;46.930;9.532;2022-10-15T16:46:33;6.07;;;2.10;;
56267;SDS011;42175;46.930;9.532;2022-10-15T16:48:59;10.05;;;2.20;;
56267;SDS011;42175;46.930;9.532;2022-10-15T16:51:25;13.45;;;2.75;;
56267;SDS011;42175;46.930;9.532;2022-10-15T16:53:51;13.13;;;2.45;;
56267;SDS011;42175;46.930;9.532;2022-10-15T16:56:22;7.47;;;1.80;;
56267;SDS011;42175;46.930;9.532;2022-10-15T16:58:50;11.65;;;2.85;;
56267;SDS011;42175;46.930;9.532;2022-10-15T17:01:17;10.43;;;2.72;;
56267;SDS011;42175;46.930;9.532;2022-10-15T17:03:44;7.55;;;2.10;;
56267;SDS011;42175;46.930;9.532;2022-10-15T17:06:14;9.38;;;2.20;;
56267;SDS011;42175;46.930;9.532;2022-10-15T17:11:10;7.38;;;2.15;;
56267;SDS011;42175;46.930;9.532;2022-10-15T17:13:38;10.35;;;2.35;;
56267;SDS011;42175;46.930;9.532;2022-10-15T17:16:07;10.00;;;1.65;;
56267;SDS011;42175;46.930;9.532;2022-10-15T17:18:38;5.20;;;1.92;;
56267;SDS011;42175;46.930;9.532;2022-10-15T17:21:09;10.40;;;2.08;;
56267;SDS011;42175;46.930;9.532;2022-10-15T17:23:36;13.25;;;2.05;;
56267;SDS011;42175;46.930;9.532;2022-10-15T17:26:03;11.50;;;1.75;;